Time;durP1;ratioP1;P1;durP2;ratioP2;P2;SDS_P1;SDS_P2;PMS_P1;PMS_P2;Temp;Humidity;BMP_temperature;BMP_pressure;BME280_temperature;BME280_humidity;BME280_pressure;Samples;Min_cycle;Max_cycle;Signal;HPM_P1;HPM_P2
2022/12/22 03:26:53;;;;;;;28.63;18.10;;;22.10;44.30;;;;;;6090991;28;83197;-66
2022/12/22 03:29:53;;;;;;;27.58;17.50;;;22.10;44.30;;;;;;6100919;28;82890;-65
2022/12/22 03:32:54;;;;;;;27.65;18.05;;;22.00;44.50;;;;;;6099634;28;83208;-63
2022/12/22 03:35:54;;;;;;;28.73;18.65;;;22.10;44.40;;;;;;6097624;28;85690;-67
2022/12/22 03:38:55;;;;;;;27.95;17.25;;;22.00;44.20;;;;;;6101825;28;85226;-66
2022/12/22 03:48:34;;;;;;;30.38;18.00;;;22.00;44.30;;;;;;6082869;28;83839;-70
2022/12/22 03:51:34;;;;;;;28.58;17.65;;;22.00;44.10;;;;;;6081843;28;84058;-72
2022/12/22 03:54:35;;;;;;;27.70;17.52;;;22.00;44.00;;;;;;6078553;28;83180;-58
2022/12/22 03:57:35;;;;;;;28.60;17.58;;;22.00;44.00;;;;;;6088341;28;88113;-61
2022/12/22 04:00:36;;;;;;;28.00;17.98;;;22.10;43.90;;;;;;6109382;28;82990;-61
2022/12/22 04:03:36;;;;;;;28.65;18.20;;;22.10;44.20;;;;;;6054878;28;83106;-59
2022/12/22 04:06:37;;;;;;;28.40;15.73;;;22.10;44.30;;;;;;6086754;28;86302;-58
2022/12/22 04:12:52;;;;;;;24.95;17.08;;;22.10;44.50;;;;;;6088299;28;83580;-59
2022/12/22 04:12:58;;;;;;;25.15;16.85;;;22.10;44.40;;;;;;6086720;28;83480;-59
2022/12/22 04:15:58;;;;;;;25.27;16.88;;;22.20;43.90;;;;;;6094696;28;83446;-59
2022/12/22 04:18:59;;;;;;;26.50;16.02;;;22.20;44.00;;;;;;6100651;28;86263;-59
2022/12/22 04:21:59;;;;;;;26.73;17.27;;;22.30;44.10;;;;;;6098207;28;83994;-60
2022/12/22 04:25:00;;;;;;;25.20;15.85;;;22.30;44.00;;;;;;6094721;28;83307;-58
2022/12/22 04:28:00;;;;;;;25.65;16.25;;;22.40;44.00;;;;;;6093192;28;83753;-59
2022/12/22 04:31:01;;;;;;;25.25;15.43;;;22.40;44.70;;;;;;6121360;28;85277;-61
2022/12/22 04:34:01;;;;;;;25.80;15.82;;;22.50;44.00;;;;;;6102068;28;83799;-60
2022/12/22 04:37:02;;;;;;;21.55;14.43;;;22.50;43.80;;;;;;6087053;28;83054;-60
2022/12/22 04:40:02;;;;;;;25.42;15.98;;;22.50;43.80;;;;;;6079365;28;83732;-62
2022/12/22 04:43:03;;;;;;;23.02;14.57;;;22.60;43.60;;;;;;6084625;28;83501;-61
2022/12/22 04:46:03;;;;;;;24.30;14.25;;;22.60;44.20;;;;;;6110098;28;83186;-63
2022/12/22 04:49:04;;;;;;;22.27;14.65;;;22.60;44.10;;;;;;6076376;28;84066;-66
2022/12/22 04:52:04;;;;;;;20.67;14.32;;;22.70;44.20;;;;;;6088834;28;86584;-63
2022/12/22 04:55:05;;;;;;;21.15;13.57;;;22.70;44.20;;;;;;6099708;28;85470;-70
2022/12/22 04:58:06;;;;;;;21.30;12.88;;;22.70;45.00;;;;;;6104590;28;87069;-65
2022/12/22 05:01:06;;;;;;;22.65;13.07;;;22.80;45.20;;;;;;6072844;28;83706;-69
2022/12/22 05:04:07;;;;;;;20.05;12.43;;;22.80;45.00;;;;;;6086565;28;90224;-68
2022/12/22 05:07:07;;;;;;;17.52;11.13;;;22.90;44.90;;;;;;6099963;28;83762;-70
2022/12/22 05:10:08;;;;;;;15.63;10.50;;;22.90;45.30;;;;;;6077292;28;84219;-66
2022/12/22 05:13:08;;;;;;;13.30;9.65;;;22.90;46.10;;;;;;6075327;28;84010;-61
2022/12/22 05:16:09;;;;;;;17.88;9.55;;;22.90;46.30;;;;;;6073910;28;84839;-67
2022/12/22 05:19:09;;;;;;;12.63;8.93;;;22.80;47.60;;;;;;6076165;28;81778;-61
2022/12/22 05:22:10;;;;;;;15.95;8.82;;;22.80;47.50;;;;;;6078264;28;80735;-60
2022/12/22 05:25:10;;;;;;;13.85;8.02;;;22.80;48.50;;;;;;6098339;28;81715;-61
2022/12/22 05:28:11;;;;;;;14.90;8.07;;;22.90;48.80;;;;;;6081062;28;84470;-67
2022/12/22 05:31:11;;;;;;;13.00;7.65;;;22.80;49.60;;;;;;6080102;28;85540;-61
2022/12/22 05:34:12;;;;;;;14.50;8.00;;;22.90;49.70;;;;;;6093358;28;83900;-64
2022/12/22 05:37:13;;;;;;;12.90;9.07;;;22.90;50.00;;;;;;6085572;28;82391;-63
2022/12/22 05:40:13;;;;;;;12.63;7.82;;;23.00;50.20;;;;;;6088830;28;80653;-63
2022/12/22 05:43:14;;;;;;;13.48;8.10;;;23.00;50.60;;;;;;6083820;28;81338;-63
2022/12/22 05:46:15;;;;;;;13.75;7.60;;;23.00;50.60;;;;;;6095045;28;81747;-63
2022/12/22 05:49:15;;;;;;;12.98;7.88;;;23.00;50.80;;;;;;6098864;28;81093;-61
2022/12/22 05:52:16;;;;;;;10.68;7.30;;;23.10;50.80;;;;;;6097581;28;82056;-61
2022/12/22 05:55:16;;;;;;;14.65;7.75;;;23.10;51.10;;;;;;6088623;28;80670;-61
2022/12/22 05:58:17;;;;;;;13.63;8.48;;;23.10;50.90;;;;;;6080480;28;81387;-64
2022/12/22 06:01:17;;;;;;;10.88;6.78;;;23.10;50.60;;;;;;6078558;28;81228;-61
2022/12/22 06:04:18;;;;;;;12.35;7.57;;;23.10;50.90;;;;;;6086910;28;80863;-61
2022/12/22 06:07:18;;;;;;;10.00;7.43;;;23.10;51.10;;;;;;6089444;28;80504;-63
2022/12/22 06:10:19;;;;;;;13.73;7.68;;;23.10;51.00;;;;;;6084317;28;81035;-62
2022/12/22 06:13:20;;;;;;;11.77;7.53;;;23.10;50.80;;;;;;6093109;28;80671;-61
2022/12/22 06:16:20;;;;;;;11.68;7.55;;;23.10;50.80;;;;;;6099246;28;81646;-61
2022/12/22 06:19:21;;;;;;;10.48;7.57;;;23.00;50.50;;;;;;6089941;28;83939;-58
2022/12/22 06:22:21;;;;;;;12.25;7.35;;;23.00;50.60;;;;;;6089570;28;83898;-62
2022/12/22 06:25:22;;;;;;;13.70;7.80;;;23.10;50.90;;;;;;6114174;28;80818;-62
2022/12/22 06:28:22;;;;;;;13.90;8.27;;;23.00;50.70;;;;;;6088615;28;83479;-60
2022/12/22 06:31:23;;;;;;;10.00;7.20;;;23.00;50.60;;;;;;6110331;28;87981;-62
2022/12/22 06:34:23;;;;;;;10.45;7.68;;;23.00;50.70;;;;;;6102765;28;84025;-62
2022/12/22 06:37:24;;;;;;;14.20;7.22;;;23.00;50.60;;;;;;6093900;28;80653;-61
2022/12/22 06:40:25;;;;;;;9.90;7.32;;;22.90;51.90;;;;;;6105946;28;80637;-63
2022/12/22 06:43:25;;;;;;;10.52;7.60;;;22.90;51.00;;;;;;6107254;28;81491;-62
2022/12/22 06:46:26;;;;;;;11.02;6.82;;;22.90;51.00;;;;;;6090733;28;83409;-63
2022/12/22 06:49:26;;;;;;;11.35;7.57;;;22.90;51.20;;;;;;6090485;28;81012;-63
2022/12/22 06:52:27;;;;;;;10.43;7.25;;;22.90;51.30;;;;;;6101562;28;82823;-62
2022/12/22 06:55:27;;;;;;;12.23;7.63;;;22.90;51.30;;;;;;6103607;28;80703;-61
2022/12/22 06:58:28;;;;;;;11.25;7.65;;;22.80;51.30;;;;;;6104128;28;80981;-61
2022/12/22 07:01:28;;;;;;;15.40;8.80;;;22.80;51.60;;;;;;6105821;28;81031;-62
2022/12/22 07:04:30;;;;;;;12.57;7.43;;;22.80;51.80;;;;;;6100559;28;80881;-62
2022/12/22 07:07:31;;;;;;;12.55;7.93;;;22.80;52.50;;;;;;6095027;28;81479;-61
2022/12/22 07:13:50;;;;;;;16.17;9.02;;;22.80;53.00;;;;;;6099278;28;81745;-59
2022/12/22 07:16:51;;;;;;;13.52;8.73;;;22.80;53.20;;;;;;6101584;28;80257;-60
2022/12/22 07:19:51;;;;;;;15.63;9.00;;;22.80;53.60;;;;;;6094804;28;80552;-61
2022/12/22 07:22:52;;;;;;;13.98;9.45;;;22.80;54.10;;;;;;6097248;28;81207;-61
2022/12/22 07:25:52;;;;;;;13.13;8.63;;;22.80;55.00;;;;;;6089999;28;83354;-61
2022/12/22 07:28:53;;;;;;;16.90;9.88;;;22.70;55.50;;;;;;6090025;28;80736;-62
2022/12/22 07:31:54;;;;;;;14.95;9.68;;;22.70;56.30;;;;;;6085113;28;80773;-62
2022/12/22 07:34:54;;;;;;;12.85;8.23;;;22.70;56.70;;;;;;6082219;28;82111;-60
2022/12/22 07:37:55;;;;;;;14.30;8.50;;;22.80;57.70;;;;;;6084476;28;81250;-58
2022/12/22 07:40:55;;;;;;;12.13;8.82;;;22.70;57.70;;;;;;6090948;28;81120;-58
2022/12/22 07:43:56;;;;;;;12.95;8.00;;;22.70;57.40;;;;;;6091438;28;81054;-58
2022/12/22 07:46:56;;;;;;;13.68;7.90;;;22.80;57.70;;;;;;6089616;28;81409;-60
2022/12/22 07:53:16;;;;;;;14.13;8.27;;;22.70;57.10;;;;;;6096331;28;84443;-64
2022/12/22 07:56:16;;;;;;;10.23;7.00;;;22.70;57.10;;;;;;6100917;28;80780;-68
2022/12/22 07:59:17;;;;;;;15.82;7.53;;;22.70;57.10;;;;;;6099945;28;80575;-67
2022/12/22 08:02:18;;;;;;;12.63;7.68;;;22.70;57.00;;;;;;6109597;28;80500;-66
2022/12/22 08:05:18;;;;;;;13.57;8.07;;;22.70;56.50;;;;;;6101085;28;81100;-69
2022/12/22 08:08:19;;;;;;;12.43;7.55;;;22.70;56.60;;;;;;6093853;28;80898;-68
2022/12/22 08:11:19;;;;;;;14.55;8.10;;;22.60;56.10;;;;;;6094934;28;80475;-64
2022/12/22 08:14:20;;;;;;;14.10;8.10;;;22.60;56.20;;;;;;6092883;28;84649;-68
2022/12/22 08:17:20;;;;;;;11.05;6.82;;;22.60;55.70;;;;;;6095001;28;81770;-66
2022/12/22 08:20:21;;;;;;;10.07;7.22;;;22.70;55.70;;;;;;6094783;28;80831;-66
2022/12/22 08:23:21;;;;;;;12.95;7.13;;;22.70;55.70;;;;;;6114743;28;80442;-66
2022/12/22 08:26:22;;;;;;;13.05;7.25;;;22.60;55.90;;;;;;6100535;28;80390;-67
2022/12/22 08:29:22;;;;;;;11.57;6.97;;;22.70;55.60;;;;;;6104349;28;80346;-67
2022/12/22 08:32:23;;;;;;;17.30;7.60;;;22.70;55.40;;;;;;6102110;28;80668;-66
2022/12/22 08:35:23;;;;;;;10.65;7.05;;;22.70;55.70;;;;;;6080846;28;80892;-68
2022/12/22 08:38:24;;;;;;;12.82;7.22;;;22.70;55.20;;;;;;6082515;28;80657;-68
2022/12/22 08:42:07;;;;;;;11.38;6.93;;;22.70;55.30;;;;;;6075660;28;80937;-65
2022/12/22 08:44:52;;;;;;;11.77;7.60;;;22.70;55.50;;;;;;6080187;28;80685;-68
2022/12/22 08:47:52;;;;;;;12.20;7.38;;;22.70;55.50;;;;;;6071781;28;86709;-65
2022/12/22 08:50:53;;;;;;;11.15;7.47;;;22.80;55.70;;;;;;6086819;28;82744;-65
2022/12/22 08:53:53;;;;;;;11.90;7.20;;;22.80;55.10;;;;;;6088107;28;81016;-64
2022/12/22 08:56:54;;;;;;;11.02;6.40;;;22.80;55.30;;;;;;6080257;28;85515;-64
2022/12/22 08:59:56;;;;;;;12.20;7.43;;;22.80;55.30;;;;;;6101353;28;80276;-67
2022/12/22 09:02:56;;;;;;;13.63;8.00;;;22.80;54.70;;;;;;6068456;28;83051;-64
2022/12/22 09:05:57;;;;;;;13.90;7.10;;;22.80;54.50;;;;;;6059629;28;80886;-60
2022/12/22 09:08:57;;;;;;;10.48;7.45;;;22.80;54.70;;;;;;6063586;28;80834;-61
2022/12/22 09:11:58;;;;;;;11.23;8.27;;;22.80;54.20;;;;;;6059253;28;82249;-60
2022/12/22 09:14:58;;;;;;;8.90;6.40;;;22.70;54.40;;;;;;6070437;28;81802;-59
2022/12/22 09:17:59;;;;;;;10.95;7.20;;;22.70;54.80;;;;;;6073086;28;80999;-59
2022/12/22 09:20:59;;;;;;;11.23;7.30;;;22.80;54.60;;;;;;6075063;28;80853;-59
2022/12/22 09:24:00;;;;;;;11.05;7.22;;;22.80;54.60;;;;;;6075425;28;80898;-64
2022/12/22 09:27:02;;;;;;;9.75;6.85;;;22.80;54.50;;;;;;6067446;28;81069;-62
2022/12/22 09:30:02;;;;;;;9.27;6.45;;;22.80;54.60;;;;;;6069499;28;80736;-58
2022/12/22 09:33:03;;;;;;;12.25;7.13;;;22.80;54.50;;;;;;6069135;28;80721;-60
2022/12/22 09:36:04;;;;;;;13.93;6.80;;;22.80;54.50;;;;;;6067406;28;82532;-61
2022/12/22 09:39:09;;;;;;;10.50;7.20;;;22.80;54.60;;;;;;6092512;28;82171;-61
2022/12/22 09:42:10;;;;;;;7.97;6.28;;;22.80;54.60;;;;;;6077735;28;81065;-61
2022/12/22 09:45:10;;;;;;;9.45;6.78;;;22.80;54.50;;;;;;6073367;28;82361;-61
2022/12/22 09:48:11;;;;;;;8.98;6.18;;;22.80;54.60;;;;;;6069607;28;84180;-60
2022/12/22 09:51:12;;;;;;;11.90;6.90;;;22.80;54.50;;;;;;6071487;28;80461;-61
2022/12/22 09:54:12;;;;;;;8.27;6.50;;;22.80;54.60;;;;;;6067381;28;81291;-61
2022/12/22 09:57:13;;;;;;;11.70;6.70;;;22.90;54.50;;;;;;6078843;28;80895;-61
2022/12/22 10:00:14;;;;;;;10.50;7.10;;;22.90;54.40;;;;;;6105426;28;81549;-62
2022/12/22 10:03:14;;;;;;;10.30;7.55;;;22.90;54.30;;;;;;6088026;28;81014;-64
2022/12/22 10:06:15;;;;;;;11.40;7.88;;;22.90;54.30;;;;;;6057699;28;80916;-61
2022/12/22 10:09:15;;;;;;;10.20;7.50;;;22.90;53.90;;;;;;6064330;28;81417;-61
2022/12/22 10:12:16;;;;;;;12.55;8.48;;;23.00;54.10;;;;;;6065872;28;80195;-60
2022/12/22 10:15:16;;;;;;;12.32;7.30;;;23.10;54.20;;;;;;6080244;28;82087;-61
2022/12/22 10:18:17;;;;;;;11.95;7.47;;;23.10;53.90;;;;;;6071998;28;81885;-67
2022/12/22 10:21:17;;;;;;;11.40;7.18;;;23.20;53.70;;;;;;6067619;28;81039;-69
2022/12/22 10:24:18;;;;;;;12.63;6.80;;;23.30;54.30;;;;;;6063695;28;80822;-68
2022/12/22 10:27:19;;;;;;;11.05;7.82;;;23.30;54.50;;;;;;6082560;28;80389;-68
2022/12/22 10:30:20;;;;;;;12.48;7.75;;;23.40;55.00;;;;;;6071721;28;80679;-65
2022/12/22 10:33:20;;;;;;;12.63;7.25;;;23.40;55.10;;;;;;6076934;28;80918;-69
2022/12/22 10:36:21;;;;;;;16.05;7.43;;;23.40;55.00;;;;;;6066599;28;80504;-64
2022/12/22 10:39:21;;;;;;;10.63;7.32;;;23.40;55.40;;;;;;6055285;28;81173;-64
2022/12/22 10:42:22;;;;;;;13.40;7.97;;;23.40;55.40;;;;;;6079647;28;80651;-64
2022/12/22 10:45:22;;;;;;;11.13;8.07;;;23.50;55.60;;;;;;6068435;28;82364;-66
2022/12/22 10:48:23;;;;;;;14.43;7.13;;;23.50;55.50;;;;;;6059651;28;80544;-63
2022/12/22 10:51:23;;;;;;;11.82;7.43;;;23.50;55.50;;;;;;6060809;28;80519;-64
2022/12/22 10:54:25;;;;;;;13.38;7.82;;;23.50;55.50;;;;;;6060060;28;80316;-64
2022/12/22 10:57:25;;;;;;;11.10;7.78;;;23.50;55.20;;;;;;6072085;28;80702;-64
2022/12/22 11:00:26;;;;;;;10.60;7.15;;;23.60;55.20;;;;;;6096738;28;80179;-65
2022/12/22 11:03:26;;;;;;;10.77;7.78;;;23.70;54.80;;;;;;6071849;28;82440;-64
2022/12/22 11:06:27;;;;;;;12.75;7.72;;;23.90;54.40;;;;;;6076979;28;83157;-66
2022/12/22 11:09:27;;;;;;;11.27;7.65;;;24.10;54.00;;;;;;6072313;28;80494;-66
2022/12/22 11:12:28;;;;;;;13.25;8.15;;;24.30;53.50;;;;;;6085152;28;81152;-66
2022/12/22 11:15:28;;;;;;;13.48;8.20;;;24.50;53.20;;;;;;6078477;28;80409;-60
2022/12/22 11:18:29;;;;;;;14.30;8.20;;;24.70;52.90;;;;;;6079241;28;80283;-59
2022/12/22 11:21:29;;;;;;;12.65;7.93;;;24.90;52.60;;;;;;6064552;28;80814;-59
2022/12/22 11:24:30;;;;;;;16.45;8.02;;;25.10;52.60;;;;;;6055080;28;80964;-61
2022/12/22 11:27:31;;;;;;;19.60;9.27;;;25.20;52.40;;;;;;6058634;28;81725;-60
2022/12/22 11:30:31;;;;;;;18.75;9.15;;;25.30;52.40;;;;;;6069934;28;80787;-60
2022/12/22 11:33:32;;;;;;;13.57;8.52;;;25.50;52.60;;;;;;6061068;28;80195;-71
2022/12/22 11:36:32;;;;;;;17.52;7.68;;;25.60;52.70;;;;;;6059869;28;80464;-71
2022/12/22 11:39:33;;;;;;;15.35;8.88;;;25.70;52.80;;;;;;6072229;28;80549;-70
2022/12/22 11:42:34;;;;;;;11.15;7.93;;;25.80;52.80;;;;;;6082405;28;80568;-72
2022/12/22 11:45:35;;;;;;;15.70;8.73;;;25.90;52.90;;;;;;6074452;28;82114;-71
2022/12/22 11:48:35;;;;;;;17.10;9.13;;;26.00;53.20;;;;;;6078700;28;81265;-70
2022/12/22 11:51:36;;;;;;;13.68;9.88;;;26.00;53.40;;;;;;6063962;28;80899;-62
2022/12/22 11:54:36;;;;;;;14.93;8.75;;;26.10;53.50;;;;;;6060986;28;81877;-62
2022/12/22 11:57:37;;;;;;;12.32;8.27;;;26.10;53.60;;;;;;6106170;28;85854;-63
2022/12/22 12:00:37;;;;;;;13.75;8.68;;;26.20;53.70;;;;;;6090493;28;81261;-64
2022/12/22 12:03:38;;;;;;;15.68;9.98;;;26.20;53.80;;;;;;6069792;28;82165;-63
2022/12/22 12:06:38;;;;;;;14.88;9.40;;;26.10;54.40;;;;;;6070615;28;82786;-61
2022/12/22 12:09:39;;;;;;;14.65;9.40;;;26.00;54.80;;;;;;6072032;28;83572;-62
2022/12/22 12:12:39;;;;;;;14.27;9.57;;;26.10;55.00;;;;;;6066202;28;80536;-61
2022/12/22 12:15:40;;;;;;;18.70;9.52;;;26.20;54.80;;;;;;6063029;28;80968;-63
2022/12/22 12:18:40;;;;;;;16.80;8.93;;;26.10;54.80;;;;;;6062753;28;81697;-70
2022/12/22 12:21:41;;;;;;;12.07;9.02;;;25.90;55.00;;;;;;6061575;28;80859;-61
2022/12/22 12:24:42;;;;;;;13.13;9.23;;;25.70;55.10;;;;;;6062234;28;81426;-62
2022/12/22 12:27:42;;;;;;;16.45;9.68;;;25.60;55.40;;;;;;6062368;28;80680;-67
2022/12/22 12:30:43;;;;;;;13.68;8.85;;;25.40;55.30;;;;;;6063435;28;81344;-69
2022/12/22 12:33:43;;;;;;;16.17;9.63;;;25.30;55.40;;;;;;6063375;28;82186;-67
2022/12/22 12:36:44;;;;;;;19.75;9.48;;;25.20;55.70;;;;;;6060182;28;80692;-68
2022/12/22 12:39:44;;;;;;;16.00;10.82;;;25.10;55.80;;;;;;6093221;28;81771;-67
2022/12/22 12:42:45;;;;;;;21.48;10.60;;;25.00;55.60;;;;;;6066081;28;82862;-66
2022/12/22 12:45:45;;;;;;;16.70;11.15;;;24.90;55.20;;;;;;6077625;28;84248;-64
2022/12/22 12:48:46;;;;;;;16.58;11.32;;;24.80;55.90;;;;;;6088766;28;85334;-64
2022/12/22 12:51:47;;;;;;;29.52;14.20;;;24.70;55.60;;;;;;6061594;28;83221;-62
2022/12/22 12:54:47;;;;;;;31.10;15.57;;;24.60;55.60;;;;;;6059619;28;82936;-62
2022/12/22 12:57:48;;;;;;;41.85;16.23;;;24.40;56.10;;;;;;6058349;28;82839;-65
2022/12/22 13:00:48;;;;;;;40.83;16.00;;;24.30;55.90;;;;;;6076300;28;84177;-66
2022/12/22 13:03:49;;;;;;;44.58;17.45;;;24.10;56.80;;;;;;6076784;28;83326;-69
2022/12/22 13:06:50;;;;;;;43.78;17.10;;;24.10;56.70;;;;;;6074843;28;84338;-68
2022/12/22 13:09:50;;;;;;;45.85;16.92;;;24.10;56.90;;;;;;6077317;28;83127;-68
2022/12/22 13:12:51;;;;;;;39.58;15.93;;;24.20;56.70;;;;;;6076185;28;83321;-67
2022/12/22 13:15:51;;;;;;;37.55;15.13;;;24.30;56.60;;;;;;6076834;28;84906;-67
2022/12/22 13:18:57;;;;;;;38.67;16.25;;;24.50;56.50;;;;;;6076862;28;85461;-68
2022/12/22 13:21:57;;;;;;;40.45;17.15;;;24.60;55.70;;;;;;6077650;28;83510;-63
2022/12/22 13:24:58;;;;;;;35.22;17.58;;;24.50;55.20;;;;;;6075593;28;82788;-66
2022/12/22 13:27:58;;;;;;;33.25;16.65;;;24.40;55.20;;;;;;6077187;28;83175;-65
2022/12/22 13:30:59;;;;;;;34.10;18.17;;;24.30;55.60;;;;;;6076469;28;83394;-65
2022/12/22 13:33:59;;;;;;;29.95;16.60;;;24.10;55.80;;;;;;6073321;28;83340;-65
2022/12/22 13:37:00;;;;;;;31.33;16.67;;;24.00;56.20;;;;;;6064257;28;82987;-65
2022/12/22 13:40:00;;;;;;;26.52;14.85;;;23.90;56.30;;;;;;6074560;28;83223;-67
2022/12/22 13:43:01;;;;;;;24.80;12.88;;;23.90;56.40;;;;;;6088351;28;86578;-65
2022/12/22 13:46:01;;;;;;;20.80;11.85;;;23.90;56.20;;;;;;6064366;28;83321;-65
2022/12/22 13:49:03;;;;;;;28.48;10.80;;;23.90;56.90;;;;;;6052193;28;83833;-66
2022/12/22 13:52:04;;;;;;;20.73;10.20;;;23.90;56.90;;;;;;6053302;28;83459;-68
2022/12/22 13:55:04;;;;;;;16.10;9.43;;;23.80;56.80;;;;;;6057038;28;83799;-65
2022/12/22 13:58:05;;;;;;;18.48;9.50;;;23.80;57.10;;;;;;6077668;28;83104;-68
2022/12/22 14:01:06;;;;;;;13.80;7.63;;;23.80;57.00;;;;;;6070460;28;81102;-65
2022/12/22 14:04:06;;;;;;;16.23;8.18;;;23.70;57.10;;;;;;6063194;28;82699;-65
2022/12/22 14:07:07;;;;;;;12.45;6.63;;;23.80;57.70;;;;;;6062377;28;83724;-67
2022/12/22 14:10:07;;;;;;;15.65;6.93;;;23.70;57.60;;;;;;6057857;28;80572;-64
2022/12/22 14:13:08;;;;;;;9.95;6.05;;;23.70;57.80;;;;;;6057469;28;80977;-63
2022/12/22 14:16:08;;;;;;;10.73;6.00;;;23.70;58.10;;;;;;6053306;28;80855;-66
2022/12/22 14:19:09;;;;;;;11.90;6.55;;;23.60;57.50;;;;;;6054658;28;80993;-68
2022/12/22 14:22:10;;;;;;;10.98;7.05;;;23.70;57.70;;;;;;6082521;28;80186;-66
2022/12/22 14:25:10;;;;;;;13.65;7.10;;;23.60;57.60;;;;;;6093255;28;81608;-66
2022/12/22 14:28:11;;;;;;;15.10;7.80;;;23.60;57.60;;;;;;6087428;28;80253;-62
2022/12/22 14:31:11;;;;;;;12.85;8.57;;;23.60;57.70;;;;;;6077022;28;81671;-56
2022/12/22 14:34:12;;;;;;;16.42;8.23;;;23.60;57.30;;;;;;6080081;28;80363;-68
2022/12/22 14:37:12;;;;;;;15.43;9.15;;;23.50;57.20;;;;;;6076796;28;80449;-68
2022/12/22 14:40:13;;;;;;;17.23;9.07;;;23.50;57.00;;;;;;6083601;28;80603;-69
2022/12/22 14:43:13;;;;;;;16.85;10.10;;;23.50;57.10;;;;;;6068163;28;82190;-65
2022/12/22 14:46:14;;;;;;;16.17;9.30;;;23.40;57.00;;;;;;6054644;28;83717;-65
2022/12/22 14:49:15;;;;;;;14.88;9.55;;;23.40;57.00;;;;;;6056395;28;83768;-66
2022/12/22 14:52:15;;;;;;;13.68;10.30;;;23.40;57.10;;;;;;6056111;28;80980;-64
2022/12/22 14:55:16;;;;;;;14.05;9.63;;;23.40;57.10;;;;;;6056457;28;84907;-72
2022/12/22 14:58:16;;;;;;;16.00;10.20;;;23.40;57.10;;;;;;6061054;28;84470;-71
2022/12/22 15:01:17;;;;;;;13.73;9.23;;;23.40;57.10;;;;;;6054042;28;84651;-74
2022/12/22 15:04:17;;;;;;;12.73;8.07;;;23.30;57.10;;;;;;6058088;28;85226;-71
2022/12/22 15:07:18;;;;;;;12.32;7.65;;;23.30;57.10;;;;;;6055617;28;80728;-68
2022/12/22 15:10:18;;;;;;;9.70;7.35;;;23.30;57.20;;;;;;6062474;28;81252;-73
2022/12/22 15:13:19;;;;;;;13.32;7.35;;;23.30;57.30;;;;;;6061409;28;80487;-65
2022/12/22 15:16:20;;;;;;;11.30;6.50;;;23.30;56.90;;;;;;6051760;28;82268;-65
2022/12/22 15:19:21;;;;;;;11.25;7.18;;;23.30;56.90;;;;;;6055255;28;81023;-64
2022/12/22 15:22:22;;;;;;;11.43;6.38;;;23.20;57.10;;;;;;6054894;28;80528;-63
2022/12/22 15:25:22;;;;;;;9.00;6.22;;;23.20;57.10;;;;;;6059708;28;85186;-63
2022/12/22 15:28:23;;;;;;;9.95;6.85;;;23.20;57.40;;;;;;6059093;28;80472;-63
2022/12/22 15:31:23;;;;;;;9.85;6.40;;;23.30;57.50;;;;;;6054531;28;80884;-63
2022/12/22 15:34:24;;;;;;;8.75;6.03;;;23.30;57.60;;;;;;6066989;28;80465;-63
2022/12/22 15:37:24;;;;;;;13.65;6.35;;;23.30;57.30;;;;;;6057720;28;83924;-63
2022/12/22 15:40:25;;;;;;;8.25;5.82;;;23.30;56.80;;;;;;6066405;28;81077;-64
2022/12/22 15:43:26;;;;;;;8.25;5.68;;;23.30;56.30;;;;;;6083498;28;81215;-63
2022/12/22 15:46:26;;;;;;;9.43;5.78;;;23.20;56.20;;;;;;6096811;28;80879;-63
2022/12/22 15:49:27;;;;;;;6.80;5.15;;;23.20;56.00;;;;;;6085799;28;87653;-66
2022/12/22 15:52:27;;;;;;;7.65;5.07;;;23.20;55.90;;;;;;6091013;28;80742;-67
2022/12/22 15:55:28;;;;;;;8.82;5.53;;;23.20;55.90;;;;;;6104320;28;80835;-67
2022/12/22 15:58:28;;;;;;;6.55;4.75;;;23.20;55.90;;;;;;6093161;28;83406;-68
2022/12/22 16:01:29;;;;;;;6.47;4.68;;;23.20;55.80;;;;;;6087974;28;82426;-66
2022/12/22 16:04:29;;;;;;;7.88;4.53;;;23.20;55.60;;;;;;6089038;28;80640;-65
2022/12/22 16:07:30;;;;;;;7.90;5.03;;;23.20;55.50;;;;;;6100732;28;80559;-64
2022/12/22 16:10:31;;;;;;;6.45;4.18;;;23.20;55.50;;;;;;6092742;28;81501;-60
2022/12/22 16:13:32;;;;;;;11.82;4.28;;;23.20;55.70;;;;;;6076284;28;85472;-60
2022/12/22 16:16:33;;;;;;;6.13;4.15;;;23.20;55.80;;;;;;6098269;28;80738;-66
2022/12/22 16:19:33;;;;;;;11.98;4.53;;;23.20;55.90;;;;;;6097784;28;80732;-66
2022/12/22 16:22:34;;;;;;;7.95;3.95;;;23.20;55.90;;;;;;6081247;28;84006;-67
2022/12/22 16:25:34;;;;;;;6.97;4.00;;;23.10;55.70;;;;;;6087401;28;80455;-60
2022/12/22 16:28:35;;;;;;;7.30;3.70;;;23.20;55.70;;;;;;6087417;28;80144;-61
2022/12/22 16:31:35;;;;;;;13.07;5.00;;;23.20;55.60;;;;;;6080255;28;81314;-62
2022/12/22 16:34:36;;;;;;;6.53;4.18;;;23.20;55.60;;;;;;6067716;28;81643;-60
2022/12/22 16:37:36;;;;;;;6.97;3.80;;;23.20;55.50;;;;;;6071815;28;82243;-60
2022/12/22 16:40:37;;;;;;;6.57;3.47;;;23.20;56.10;;;;;;6066811;28;80988;-62
2022/12/22 16:43:37;;;;;;;4.88;3.10;;;23.30;55.50;;;;;;6071808;28;82135;-64
2022/12/22 16:46:38;;;;;;;6.80;3.00;;;23.30;55.30;;;;;;6080327;28;83022;-65
2022/12/22 16:49:39;;;;;;;5.93;3.60;;;23.30;55.50;;;;;;6080953;28;82465;-63
2022/12/22 16:52:39;;;;;;;4.72;2.95;;;23.30;55.50;;;;;;6075607;28;81978;-64
2022/12/22 16:55:40;;;;;;;5.47;3.22;;;23.20;55.30;;;;;;6075939;28;80748;-67
2022/12/22 16:58:40;;;;;;;3.90;2.80;;;23.20;55.50;;;;;;6089056;28;81200;-66
2022/12/22 17:01:42;;;;;;;4.55;2.88;;;23.20;56.00;;;;;;6086611;28;82815;-69
2022/12/22 17:04:43;;;;;;;3.55;2.55;;;23.30;55.90;;;;;;6093349;28;81091;-64
2022/12/22 17:07:43;;;;;;;4.25;2.95;;;23.40;55.70;;;;;;6089408;28;80625;-64
2022/12/22 17:10:44;;;;;;;4.35;2.80;;;23.40;55.30;;;;;;6091119;28;81331;-63
2022/12/22 17:13:44;;;;;;;4.50;2.80;;;23.40;55.20;;;;;;6090449;28;81257;-64
2022/12/22 17:16:45;;;;;;;4.22;2.67;;;23.40;55.60;;;;;;6088736;28;80789;-66
2022/12/22 17:19:45;;;;;;;6.10;2.85;;;23.40;55.60;;;;;;6094285;28;80861;-62
2022/12/22 17:22:46;;;;;;;5.25;3.28;;;23.50;55.30;;;;;;6074963;28;80990;-67
2022/12/22 17:25:46;;;;;;;7.40;3.08;;;23.40;54.40;;;;;;6074989;28;81320;-65
2022/12/22 17:28:47;;;;;;;5.18;3.08;;;23.40;54.50;;;;;;6077940;28;80273;-68
2022/12/22 17:31:48;;;;;;;8.25;3.63;;;23.40;54.10;;;;;;6083348;28;80513;-67
2022/12/22 17:34:49;;;;;;;5.88;3.17;;;23.40;53.60;;;;;;6101450;28;81130;-62
2022/12/22 17:37:49;;;;;;;6.25;3.08;;;23.40;53.10;;;;;;6082391;28;80290;-64
2022/12/22 17:40:50;;;;;;;5.60;2.65;;;23.40;52.40;;;;;;6087996;28;80497;-63
2022/12/22 17:43:50;;;;;;;4.28;2.78;;;23.30;53.20;;;;;;6103745;28;82423;-66
2022/12/22 17:46:51;;;;;;;4.90;3.05;;;23.30;53.40;;;;;;6097224;28;82280;-64
2022/12/22 17:49:53;;;;;;;5.35;3.03;;;23.30;53.60;;;;;;6096891;28;82469;-65
2022/12/22 17:52:54;;;;;;;8.88;3.00;;;23.40;52.90;;;;;;6100095;28;80810;-65
2022/12/22 17:55:54;;;;;;;4.88;3.42;;;23.50;53.00;;;;;;6099320;28;81190;-62
2022/12/22 17:58:55;;;;;;;7.82;3.35;;;23.60;51.80;;;;;;6093875;28;82039;-68
2022/12/22 18:01:55;;;;;;;7.50;3.47;;;23.50;51.90;;;;;;6086355;28;82103;-70
2022/12/22 18:04:56;;;;;;;5.35;3.60;;;23.60;51.40;;;;;;6085254;28;82107;-71
2022/12/22 18:07:58;;;;;;;5.68;3.78;;;23.60;51.00;;;;;;6088035;28;81429;-70
2022/12/22 18:10:58;;;;;;;7.38;4.00;;;23.60;50.70;;;;;;6092956;28;80980;-71
2022/12/22 18:13:59;;;;;;;5.45;3.40;;;23.60;50.50;;;;;;6085988;28;80406;-67
2022/12/22 18:16:59;;;;;;;6.15;3.78;;;23.60;50.30;;;;;;6097122;28;80261;-63
2022/12/22 18:20:00;;;;;;;6.75;3.40;;;23.70;50.50;;;;;;6100932;28;81135;-65
2022/12/22 18:23:01;;;;;;;4.38;3.42;;;23.60;50.40;;;;;;6072855;28;82106;-64
2022/12/22 18:26:01;;;;;;;5.82;3.95;;;23.70;50.20;;;;;;6084311;28;80510;-63
2022/12/22 18:29:02;;;;;;;8.65;4.00;;;23.70;49.90;;;;;;6079346;28;81318;-64
2022/12/22 18:32:03;;;;;;;6.57;4.30;;;23.60;49.90;;;;;;6081236;28;80967;-66
2022/12/22 18:35:04;;;;;;;6.60;3.97;;;23.70;50.00;;;;;;6077627;28;84020;-62
2022/12/22 18:38:04;;;;;;;7.28;4.32;;;23.70;49.80;;;;;;6064077;28;81430;-61
2022/12/22 18:41:05;;;;;;;6.85;3.67;;;23.70;50.00;;;;;;6064844;28;81263;-62
2022/12/22 18:44:05;;;;;;;6.20;4.25;;;23.60;49.50;;;;;;6072942;28;80961;-63
2022/12/22 18:47:06;;;;;;;7.53;3.70;;;23.60;49.10;;;;;;6071066;28;81286;-63
2022/12/22 18:50:07;;;;;;;6.13;3.80;;;23.60;49.40;;;;;;6067034;28;82349;-64
2022/12/22 18:53:07;;;;;;;5.60;3.58;;;23.60;49.40;;;;;;6070768;28;80610;-60
2022/12/22 18:56:08;;;;;;;6.85;4.20;;;23.60;49.20;;;;;;6065641;28;81563;-61
2022/12/22 18:59:08;;;;;;;7.13;4.22;;;23.50;48.80;;;;;;6072987;28;80434;-63
2022/12/22 19:02:09;;;;;;;5.13;3.75;;;23.50;48.80;;;;;;6092806;28;84801;-63
2022/12/22 19:05:09;;;;;;;7.68;3.92;;;23.50;48.80;;;;;;6095038;28;80881;-63
2022/12/22 19:08:10;;;;;;;6.53;4.32;;;23.50;48.70;;;;;;6089914;28;80399;-62